Time;durP1;ratioP1;P1;durP2;ratioP2;P2;SDS_P1;SDS_P2;PMS_P1;PMS_P2;Temp;Humidity;BMP_temperature;BMP_pressure;BME280_temperature;BME280_humidity;BME280_pressure;Samples;Min_cycle;Max_cycle;Signal;HPM_P1;HPM_P2
2022/03/10 00:00:14;;;;;;;3.63;1.50;;;-8.30;99.90;;;;;;4935481;29;20412;-85
2022/03/10 00:02:43;;;;;;;6.15;1.88;;;-8.40;99.90;;;;;;4934087;29;20833;-87
2022/03/10 00:05:13;;;;;;;3.37;1.53;;;-8.40;99.90;;;;;;4934005;29;20416;-86
2022/03/10 00:07:41;;;;;;;5.18;1.83;;;-8.40;99.90;;;;;;4933884;29;20409;-86
2022/03/10 00:10:09;;;;;;;4.50;1.63;;;-8.40;99.90;;;;;;4933671;29;20765;-84
2022/03/10 00:12:37;;;;;;;4.68;1.60;;;-8.40;99.90;;;;;;4917881;29;20416;-86
2022/03/10 00:15:09;;;;;;;5.00;1.85;;;-8.50;99.90;;;;;;4934049;29;20441;-86
2022/03/10 00:17:37;;;;;;;3.88;1.70;;;-8.50;99.90;;;;;;4935218;29;20426;-86
2022/03/10 00:20:05;;;;;;;4.80;1.60;;;-8.60;99.90;;;;;;4933753;29;20433;-86
2022/03/10 00:22:45;;;;;;;4.95;1.73;;;-8.50;99.90;;;;;;4933862;29;20414;-86
2022/03/10 00:25:13;;;;;;;4.78;1.90;;;-8.70;99.90;;;;;;4933820;29;20413;-86
2022/03/10 00:27:46;;;;;;;4.25;1.80;;;-8.70;99.90;;;;;;4933895;29;20461;-85
2022/03/10 00:30:14;;;;;;;4.90;1.88;;;-8.70;99.90;;;;;;4917798;29;20414;-85
2022/03/10 00:32:49;;;;;;;5.18;2.03;;;-8.70;99.90;;;;;;4933721;29;20413;-87
2022/03/10 00:35:26;;;;;;;4.43;1.77;;;-8.80;99.90;;;;;;4933570;29;20414;-86
2022/03/10 00:38:00;;;;;;;4.35;1.70;;;-8.80;99.90;;;;;;4933799;29;20904;-86
2022/03/10 00:40:28;;;;;;;4.05;1.90;;;-8.80;99.90;;;;;;4917804;29;20413;-86
2022/03/10 00:42:55;;;;;;;6.30;1.60;;;-8.80;99.90;;;;;;4933911;29;20406;-85
2022/03/10 00:45:25;;;;;;;4.90;2.00;;;-8.80;99.90;;;;;;4936604;29;20426;-85
2022/03/10 00:47:53;;;;;;;4.40;1.75;;;-9.00;99.90;;;;;;4937447;29;20410;-85
2022/03/10 00:50:23;;;;;;;6.32;2.10;;;-8.90;99.90;;;;;;4935258;29;20438;-86
2022/03/10 00:52:51;;;;;;;4.63;1.90;;;-9.00;99.90;;;;;;4956458;29;20886;-84
2022/03/10 00:55:19;;;;;;;5.97;1.85;;;-9.00;99.90;;;;;;4957494;29;20439;-86
2022/03/10 00:57:48;;;;;;;4.43;1.73;;;-9.00;99.90;;;;;;4940555;29;20929;-85
2022/03/10 01:00:16;;;;;;;7.17;1.90;;;-9.00;99.90;;;;;;4940632;29;20407;-85
2022/03/10 01:02:44;;;;;;;4.05;1.75;;;-9.00;99.90;;;;;;4956199;29;20396;-85
2022/03/10 01:05:12;;;;;;;6.30;2.00;;;-9.10;99.90;;;;;;4956332;29;20416;-88
2022/03/10 01:07:41;;;;;;;6.55;1.90;;;-9.10;99.90;;;;;;4956372;29;20404;-88
2022/03/10 01:10:12;;;;;;;4.55;1.92;;;-9.10;99.90;;;;;;4925029;29;20422;-86
2022/03/10 01:12:42;;;;;;;5.35;1.70;;;-9.10;99.90;;;;;;4924590;29;20498;-88
2022/03/10 01:15:19;;;;;;;5.70;1.88;;;-9.10;99.90;;;;;;4940719;29;20400;-88
2022/03/10 01:17:47;;;;;;;6.18;1.95;;;-9.20;99.90;;;;;;4956009;29;20455;-86
2022/03/10 01:20:22;;;;;;;4.28;1.75;;;-9.20;99.90;;;;;;4956067;29;20471;-85
2022/03/10 01:22:49;;;;;;;4.43;1.80;;;-9.20;99.90;;;;;;4927181;28;20414;-88
2022/03/10 01:25:18;;;;;;;3.72;1.70;;;-9.30;99.90;;;;;;4949621;28;20414;-87
2022/03/10 01:27:46;;;;;;;4.93;1.85;;;-9.20;99.90;;;;;;4948596;29;20463;-88
2022/03/10 01:30:14;;;;;;;3.73;1.60;;;-9.20;99.90;;;;;;4936574;29;20429;-87
2022/03/10 01:32:42;;;;;;;4.57;1.63;;;-9.30;99.90;;;;;;4936822;29;20404;-85
2022/03/10 01:35:11;;;;;;;3.75;1.50;;;-9.40;99.90;;;;;;4955631;29;20407;-84
2022/03/10 01:37:39;;;;;;;5.05;1.70;;;-9.40;99.90;;;;;;4973920;28;20405;-85
2022/03/10 01:40:12;;;;;;;5.67;2.00;;;-9.40;99.90;;;;;;4964993;28;20396;-86
2022/03/10 01:42:40;;;;;;;4.25;1.60;;;-9.40;99.90;;;;;;4955868;29;20392;-86
2022/03/10 01:45:08;;;;;;;5.97;2.00;;;-9.50;99.90;;;;;;4955620;29;20724;-86
2022/03/10 01:47:37;;;;;;;4.18;1.83;;;-9.40;99.90;;;;;;4939922;29;20406;-86
2022/03/10 01:50:06;;;;;;;5.57;2.10;;;-9.50;99.90;;;;;;4939381;29;20922;-87
2022/03/10 01:52:34;;;;;;;5.85;2.03;;;-9.50;99.90;;;;;;4939585;29;20503;-88
2022/03/10 01:55:03;;;;;;;4.45;1.85;;;-9.50;99.90;;;;;;4954939;28;20479;-88
2022/03/10 01:57:31;;;;;;;6.60;2.13;;;-9.50;99.90;;;;;;4938825;29;20502;-87
2022/03/10 01:59:58;;;;;;;4.88;1.98;;;-9.60;99.90;;;;;;4955310;29;20899;-87
2022/03/10 02:02:26;;;;;;;4.82;1.75;;;-9.70;99.90;;;;;;4939307;29;20407;-88
2022/03/10 02:04:55;;;;;;;4.50;2.03;;;-9.60;99.90;;;;;;4939237;29;20759;-89
2022/03/10 02:10:17;;;;;;;4.67;2.00;;;-9.70;99.90;;;;;;4939233;29;20922;-88
2022/03/10 02:12:52;;;;;;;5.63;2.00;;;-9.70;99.90;;;;;;4956330;29;20862;-88
2022/03/10 02:18:16;;;;;;;4.20;2.00;;;-9.70;99.90;;;;;;4935790;29;20473;-87
2022/03/10 02:20:43;;;;;;;5.38;2.03;;;-9.80;99.90;;;;;;4941610;28;20722;-87
2022/03/10 02:23:16;;;;;;;3.92;1.90;;;-9.80;99.90;;;;;;4974162;28;20390;-84
2022/03/10 02:25:43;;;;;;;5.95;2.10;;;-9.80;99.90;;;;;;4957837;28;20884;-86
2022/03/10 02:28:11;;;;;;;5.38;2.05;;;-9.80;99.90;;;;;;4956278;28;20426;-85
2022/03/10 02:30:38;;;;;;;4.85;1.95;;;-9.90;99.90;;;;;;4938729;29;20411;-87
2022/03/10 02:33:06;;;;;;;6.60;2.15;;;-9.90;99.90;;;;;;4938799;29;20910;-87
2022/03/10 02:35:34;;;;;;;5.90;2.03;;;-9.90;99.90;;;;;;4938331;29;20526;-87
2022/03/10 02:38:02;;;;;;;4.88;2.05;;;-9.90;99.90;;;;;;4955533;29;20897;-87
2022/03/10 02:40:30;;;;;;;5.97;2.20;;;-9.90;99.90;;;;;;4954483;29;20404;-87
2022/03/10 02:42:58;;;;;;;6.27;1.97;;;-10.00;99.90;;;;;;4922605;29;20443;-87
2022/03/10 02:45:26;;;;;;;7.40;2.20;;;-10.00;99.90;;;;;;4954350;29;20819;-87
2022/03/10 02:47:53;;;;;;;5.40;2.07;;;-10.10;99.90;;;;;;4954287;29;20403;-87
2022/03/10 02:50:23;;;;;;;6.22;2.17;;;-10.10;99.90;;;;;;4938189;29;20423;-85
2022/03/10 02:52:51;;;;;;;6.45;2.08;;;-10.20;99.90;;;;;;4938207;29;20401;-86
2022/03/10 02:55:18;;;;;;;5.57;1.83;;;-10.20;99.90;;;;;;4938316;29;20415;-87
2022/03/10 02:57:46;;;;;;;7.37;2.33;;;-10.10;99.90;;;;;;4938044;29;20819;-87
2022/03/10 03:00:14;;;;;;;4.63;1.80;;;-10.20;99.90;;;;;;4938525;29;20399;-87
2022/03/10 03:02:43;;;;;;;5.63;2.22;;;-10.20;99.90;;;;;;4938011;29;20404;-86
2022/03/10 03:05:12;;;;;;;6.30;2.05;;;-10.20;99.90;;;;;;4938146;29;20404;-87
2022/03/10 03:07:45;;;;;;;5.82;1.83;;;-10.20;99.90;;;;;;4938201;29;20420;-86
2022/03/10 03:10:13;;;;;;;6.13;2.38;;;-10.20;99.90;;;;;;4954242;29;20416;-87
2022/03/10 03:12:50;;;;;;;5.17;1.90;;;-10.30;99.90;;;;;;4938187;29;20397;-87
2022/03/10 03:15:19;;;;;;;6.25;1.92;;;-10.30;99.90;;;;;;4953829;29;20863;-85
2022/03/10 03:17:47;;;;;;;4.97;2.05;;;-10.30;99.90;;;;;;4938191;29;20392;-85
2022/03/10 03:20:16;;;;;;;5.38;2.17;;;-10.30;99.90;;;;;;4937642;29;20400;-85
2022/03/10 03:22:46;;;;;;;4.93;2.17;;;-10.40;99.90;;;;;;4937846;29;20495;-85
2022/03/10 03:25:14;;;;;;;7.22;2.40;;;-10.40;99.90;;;;;;4922272;29;20400;-85
2022/03/10 03:27:45;;;;;;;6.90;2.17;;;-10.30;99.90;;;;;;4937562;29;20397;-84
2022/03/10 03:30:13;;;;;;;8.93;2.25;;;-10.40;99.90;;;;;;4937688;29;20483;-85
2022/03/10 03:32:40;;;;;;;4.68;2.03;;;-10.50;99.90;;;;;;4954787;29;20545;-87
2022/03/10 03:35:08;;;;;;;6.35;1.98;;;-10.40;99.90;;;;;;4954728;29;20395;-85
2022/03/10 03:37:35;;;;;;;5.03;2.20;;;-10.40;99.90;;;;;;4954511;29;20403;-85
2022/03/10 03:40:07;;;;;;;8.77;2.50;;;-10.40;99.90;;;;;;4937516;29;20463;-86
2022/03/10 03:42:34;;;;;;;6.50;2.30;;;-10.50;99.90;;;;;;4921852;29;20446;-85
2022/03/10 03:45:04;;;;;;;22.27;3.75;;;-10.50;99.90;;;;;;4954498;29;20844;-86
2022/03/10 03:47:31;;;;;;;6.05;2.10;;;-10.50;99.90;;;;;;4950419;28;20865;-85
2022/03/10 03:49:58;;;;;;;7.07;2.38;;;-10.50;99.90;;;;;;4933802;29;20423;-85
2022/03/10 03:52:27;;;;;;;7.00;2.30;;;-10.50;99.90;;;;;;4934087;29;20441;-85
2022/03/10 03:54:55;;;;;;;5.78;2.20;;;-10.60;99.90;;;;;;4933911;29;20410;-85
2022/03/10 03:57:22;;;;;;;5.03;2.30;;;-10.50;99.90;;;;;;4902843;29;20421;-85
2022/03/10 03:59:50;;;;;;;9.50;2.72;;;-10.70;99.90;;;;;;4918070;29;20406;-84
2022/03/10 04:02:17;;;;;;;4.10;1.65;;;-10.80;99.90;;;;;;4934108;29;20508;-85
2022/03/10 04:04:45;;;;;;;4.95;2.10;;;-10.80;99.90;;;;;;4934046;29;20410;-87
2022/03/10 04:07:14;;;;;;;7.30;2.50;;;-10.70;99.90;;;;;;4933883;29;20800;-87
2022/03/10 04:09:42;;;;;;;5.45;1.92;;;-10.70;99.90;;;;;;4934989;29;20453;-85
2022/03/10 04:12:09;;;;;;;5.35;1.98;;;-10.90;99.90;;;;;;4933922;29;20401;-85
2022/03/10 04:14:37;;;;;;;7.57;2.10;;;-10.80;99.90;;;;;;4934197;29;20919;-87
2022/03/10 04:17:05;;;;;;;5.97;2.03;;;-10.80;99.90;;;;;;4933839;29;20398;-85
2022/03/10 04:19:33;;;;;;;6.57;2.20;;;-10.90;99.90;;;;;;4917517;29;20486;-85
2022/03/10 04:22:03;;;;;;;5.65;2.03;;;-10.90;99.90;;;;;;4936836;29;20402;-84
2022/03/10 04:24:30;;;;;;;5.55;2.03;;;-10.90;99.90;;;;;;4952965;29;20400;-85
2022/03/10 04:26:58;;;;;;;6.15;2.20;;;-11.00;99.90;;;;;;4952953;29;20392;-85
2022/03/10 04:29:25;;;;;;;5.95;1.85;;;-10.90;99.90;;;;;;4952712;29;20428;-86
2022/03/10 04:31:53;;;;;;;6.13;2.25;;;-10.90;99.90;;;;;;4937048;29;20443;-86
2022/03/10 04:34:21;;;;;;;6.13;2.20;;;-11.00;99.90;;;;;;4936584;29;20412;-86
2022/03/10 04:36:48;;;;;;;6.72;2.03;;;-11.00;99.90;;;;;;4952939;29;20404;-87
2022/03/10 04:39:16;;;;;;;6.05;2.28;;;-11.10;99.90;;;;;;4952521;29;20404;-86
2022/03/10 04:41:44;;;;;;;5.70;2.35;;;-11.10;99.90;;;;;;4952554;29;20407;-87
2022/03/10 04:44:11;;;;;;;5.93;2.55;;;-11.10;99.90;;;;;;4952755;29;20894;-87
2022/03/10 04:46:39;;;;;;;5.78;2.20;;;-11.10;99.90;;;;;;4952904;29;20882;-87
2022/03/10 04:49:06;;;;;;;5.25;2.10;;;-11.10;99.90;;;;;;4936924;29;20459;-87
2022/03/10 04:51:34;;;;;;;6.47;2.33;;;-11.10;99.90;;;;;;4936898;29;20424;-87
2022/03/10 04:54:03;;;;;;;6.60;2.30;;;-11.10;99.90;;;;;;4936868;29;20408;-86
2022/03/10 04:56:30;;;;;;;5.93;2.40;;;-11.30;99.90;;;;;;4933424;29;20453;-87
2022/03/10 04:58:58;;;;;;;5.95;2.13;;;-11.30;99.90;;;;;;4949401;29;20754;-87
2022/03/10 05:01:25;;;;;;;5.60;2.40;;;-11.30;99.90;;;;;;4949321;29;20473;-85
2022/03/10 05:03:53;;;;;;;5.80;2.45;;;-11.30;99.90;;;;;;4933418;29;20457;-87
2022/03/10 05:06:26;;;;;;;8.25;2.67;;;-11.30;99.90;;;;;;4928678;29;20423;-87
2022/03/10 05:08:53;;;;;;;5.40;2.20;;;-11.30;99.90;;;;;;4898543;29;20443;-86
2022/03/10 05:11:21;;;;;;;6.83;2.30;;;-11.30;99.90;;;;;;4931031;29;20918;-87
2022/03/10 05:13:53;;;;;;;6.65;2.55;;;-11.30;99.90;;;;;;4925517;29;20430;-86
2022/03/10 05:16:20;;;;;;;6.17;2.43;;;-11.30;99.90;;;;;;4929870;29;20411;-87
2022/03/10 05:18:48;;;;;;;5.55;2.15;;;-11.40;99.90;;;;;;4914369;29;20475;-86
2022/03/10 05:21:15;;;;;;;5.37;2.17;;;-11.40;99.90;;;;;;4930210;29;20512;-87
2022/03/10 05:23:43;;;;;;;6.47;2.38;;;-11.30;99.90;;;;;;4914232;29;20407;-87
2022/03/10 05:26:10;;;;;;;4.68;2.28;;;-11.30;99.90;;;;;;4914418;29;20683;-85
2022/03/10 05:28:38;;;;;;;5.37;2.10;;;-11.30;99.90;;;;;;4930254;29;20471;-88
2022/03/10 05:31:05;;;;;;;5.68;2.35;;;-11.30;99.90;;;;;;4940130;28;20408;-86
2022/03/10 05:33:33;;;;;;;6.65;2.50;;;-11.40;99.90;;;;;;4940816;29;20872;-87
2022/03/10 05:36:00;;;;;;;54.92;6.82;;;-11.40;99.90;;;;;;4901798;29;20403;-87
2022/03/10 05:38:28;;;;;;;7.75;2.33;;;-11.40;99.90;;;;;;4941531;28;20414;-86
2022/03/10 05:40:55;;;;;;;5.83;2.13;;;-11.40;99.90;;;;;;4959181;28;20408;-87
2022/03/10 05:43:23;;;;;;;4.32;1.90;;;-11.50;99.90;;;;;;4955481;29;20408;-87
2022/03/10 05:45:50;;;;;;;5.80;2.10;;;-11.40;99.90;;;;;;4955636;28;20412;-87
2022/03/10 05:48:18;;;;;;;6.50;2.13;;;-11.50;99.90;;;;;;4955462;28;20415;-87
2022/03/10 05:50:45;;;;;;;6.03;2.38;;;-11.40;99.90;;;;;;4955231;29;20819;-86
2022/03/10 05:53:13;;;;;;;4.85;1.92;;;-11.40;99.90;;;;;;4940005;29;20438;-87
2022/03/10 05:55:41;;;;;;;5.55;1.85;;;-11.50;99.90;;;;;;4945246;29;20401;-85
2022/03/10 05:58:09;;;;;;;6.18;2.40;;;-11.50;99.90;;;;;;4929328;29;21086;-84
2022/03/10 06:00:41;;;;;;;6.28;2.22;;;-11.50;99.90;;;;;;4937888;29;20401;-85
2022/03/10 06:03:10;;;;;;;4.80;2.15;;;-11.50;99.90;;;;;;4952241;29;20398;-84
2022/03/10 06:05:37;;;;;;;6.53;2.33;;;-11.50;99.90;;;;;;4952443;29;20398;-85
2022/03/10 06:08:05;;;;;;;5.43;2.03;;;-11.50;99.90;;;;;;4951967;29;20430;-87
2022/03/10 06:10:32;;;;;;;6.88;2.30;;;-11.60;99.90;;;;;;4936307;29;20422;-87
2022/03/10 06:13:00;;;;;;;5.10;2.00;;;-11.60;99.90;;;;;;4934461;29;20421;-85
2022/03/10 06:15:27;;;;;;;5.80;2.25;;;-11.50;99.90;;;;;;4932394;29;20461;-85
2022/03/10 06:17:55;;;;;;;5.43;2.20;;;-11.50;99.90;;;;;;4945375;29;20435;-86
2022/03/10 06:20:23;;;;;;;5.97;2.23;;;-11.60;99.90;;;;;;4932375;29;20744;-85
2022/03/10 06:22:51;;;;;;;6.57;2.25;;;-11.60;99.90;;;;;;4916778;29;20403;-85
2022/03/10 06:25:18;;;;;;;7.07;2.17;;;-11.50;99.90;;;;;;4936640;29;20944;-85
2022/03/10 06:27:45;;;;;;;6.88;2.30;;;-11.50;99.90;;;;;;4947921;29;20463;-85
2022/03/10 06:30:13;;;;;;;5.20;2.13;;;-11.40;99.90;;;;;;4932198;29;20775;-87
2022/03/10 06:32:41;;;;;;;5.35;2.10;;;-11.40;99.90;;;;;;4952507;28;20420;-85
2022/03/10 06:35:11;;;;;;;4.88;2.20;;;-11.20;99.90;;;;;;4934008;29;20855;-87
2022/03/10 06:37:43;;;;;;;5.95;2.40;;;-11.20;99.90;;;;;;4949795;29;20896;-87
2022/03/10 06:40:12;;;;;;;6.13;2.58;;;-11.10;99.90;;;;;;4931654;29;20416;-86
2022/03/10 06:42:40;;;;;;;6.90;2.95;;;-11.10;99.90;;;;;;4934512;29;20405;-86
2022/03/10 06:45:08;;;;;;;6.25;2.35;;;-11.00;99.90;;;;;;4935562;29;20753;-86
2022/03/10 06:47:38;;;;;;;5.47;2.33;;;-10.90;99.90;;;;;;4935393;29;20394;-86
2022/03/10 06:50:06;;;;;;;6.95;2.70;;;-10.70;99.90;;;;;;4912900;29;20465;-87
2022/03/10 06:52:34;;;;;;;7.28;2.80;;;-10.70;99.90;;;;;;4950324;29;20424;-86
2022/03/10 06:55:01;;;;;;;5.60;2.23;;;-10.70;99.90;;;;;;4941011;29;20447;-86
2022/03/10 06:57:29;;;;;;;7.40;2.63;;;-10.60;99.90;;;;;;4931604;29;20483;-85
2022/03/10 06:59:56;;;;;;;6.28;2.55;;;-10.50;99.90;;;;;;4916110;29;20920;-86
2022/03/10 07:02:24;;;;;;;6.50;2.60;;;-10.40;99.90;;;;;;4924060;29;20450;-86
2022/03/10 07:04:52;;;;;;;11.57;3.22;;;-10.40;99.90;;;;;;4951040;29;20398;-85
2022/03/10 07:07:19;;;;;;;7.33;2.63;;;-10.40;99.90;;;;;;4934858;29;20501;-86
2022/03/10 07:09:47;;;;;;;9.13;3.47;;;-10.30;99.90;;;;;;4933612;29;20397;-86
2022/03/10 07:12:14;;;;;;;9.18;3.08;;;-10.30;99.90;;;;;;4934118;29;20414;-86
2022/03/10 07:14:42;;;;;;;6.93;2.45;;;-10.30;99.90;;;;;;4935677;29;20441;-87
2022/03/10 07:17:10;;;;;;;8.27;2.60;;;-10.20;99.90;;;;;;4950635;29;20398;-86
2022/03/10 07:19:37;;;;;;;7.32;2.78;;;-10.10;99.90;;;;;;4950278;29;20424;-84
2022/03/10 07:22:05;;;;;;;7.13;2.50;;;-10.10;99.90;;;;;;4950406;29;20414;-86
2022/03/10 07:24:32;;;;;;;8.43;3.07;;;-10.10;99.90;;;;;;4934684;29;20921;-86
2022/03/10 07:27:00;;;;;;;8.13;3.20;;;-9.90;99.90;;;;;;4934298;29;20406;-86
2022/03/10 07:29:27;;;;;;;9.35;3.22;;;-9.90;99.90;;;;;;4950346;29;20401;-86
2022/03/10 07:31:57;;;;;;;10.15;3.22;;;-9.90;99.90;;;;;;4950198;29;20445;-86
2022/03/10 07:34:24;;;;;;;6.93;2.90;;;-9.80;99.90;;;;;;4950196;29;20493;-86
2022/03/10 07:36:53;;;;;;;10.07;3.70;;;-9.80;99.90;;;;;;4950608;29;20417;-86
2022/03/10 07:39:21;;;;;;;9.77;3.25;;;-9.80;99.90;;;;;;4934461;29;20478;-86
2022/03/10 07:41:48;;;;;;;11.77;3.40;;;-9.60;99.90;;;;;;4950200;29;20924;-86
2022/03/10 07:44:16;;;;;;;7.88;3.25;;;-9.60;99.90;;;;;;4934174;29;20405;-87
2022/03/10 07:46:43;;;;;;;9.15;2.92;;;-9.60;99.90;;;;;;4950158;29;20439;-87
2022/03/10 07:49:11;;;;;;;10.60;3.33;;;-9.60;99.90;;;;;;4934390;29;20887;-86
2022/03/10 07:51:44;;;;;;;10.98;2.95;;;-9.50;99.90;;;;;;4950078;29;20500;-86
2022/03/10 07:54:11;;;;;;;11.38;3.60;;;-9.60;99.90;;;;;;4949434;28;20432;-85
2022/03/10 07:56:39;;;;;;;9.23;3.50;;;-9.50;99.90;;;;;;4934122;29;20409;-87
2022/03/10 07:59:06;;;;;;;7.78;3.58;;;-9.50;99.90;;;;;;4918360;29;20504;-87
2022/03/10 08:01:34;;;;;;;9.47;3.33;;;-9.50;99.90;;;;;;4933853;29;20406;-86
2022/03/10 08:04:02;;;;;;;8.18;3.22;;;-9.40;99.90;;;;;;4933852;29;20550;-86
2022/03/10 08:06:30;;;;;;;10.02;3.30;;;-9.30;99.90;;;;;;4949741;29;20513;-86
2022/03/10 08:08:57;;;;;;;7.33;3.60;;;-9.30;99.90;;;;;;4950117;29;20485;-86
2022/03/10 08:11:28;;;;;;;8.45;3.45;;;-9.20;99.90;;;;;;4934152;29;20757;-87
2022/03/10 08:13:55;;;;;;;6.97;3.20;;;-9.20;99.90;;;;;;4949588;29;20896;-86
2022/03/10 08:16:23;;;;;;;8.48;3.75;;;-9.10;99.90;;;;;;4933507;29;20501;-87
2022/03/10 08:18:50;;;;;;;7.68;3.30;;;-9.10;99.90;;;;;;4935122;29;20429;-86
2022/03/10 08:21:18;;;;;;;11.20;4.25;;;-9.10;99.90;;;;;;4933462;29;20768;-86
2022/03/10 08:23:45;;;;;;;9.73;4.32;;;-9.00;99.90;;;;;;4934905;29;20404;-87
2022/03/10 08:26:13;;;;;;;9.50;3.50;;;-8.90;99.90;;;;;;4933942;29;20450;-86
2022/03/10 08:28:41;;;;;;;9.13;3.30;;;-8.90;99.90;;;;;;4949563;29;20912;-86
2022/03/10 08:31:08;;;;;;;6.93;3.33;;;-8.80;99.90;;;;;;4949485;29;20508;-87
2022/03/10 08:33:37;;;;;;;6.75;3.42;;;-8.70;99.90;;;;;;4933607;29;20512;-86
2022/03/10 08:36:06;;;;;;;10.73;3.60;;;-8.60;99.90;;;;;;4933828;29;20651;-87
2022/03/10 08:38:35;;;;;;;7.70;3.00;;;-8.40;99.90;;;;;;4933888;29;20393;-85
2022/03/10 08:41:02;;;;;;;7.00;2.70;;;-8.50;99.90;;;;;;4933804;29;20437;-86
2022/03/10 08:43:31;;;;;;;10.18;2.70;;;-8.40;99.90;;;;;;4934975;29;20914;-86
2022/03/10 08:46:01;;;;;;;8.85;2.47;;;-8.30;99.90;;;;;;4933615;29;20434;-85
2022/03/10 08:48:31;;;;;;;6.88;2.65;;;-8.20;99.90;;;;;;4933493;29;20914;-86
2022/03/10 08:51:00;;;;;;;7.97;2.70;;;-8.00;99.90;;;;;;4933763;29;20409;-86
2022/03/10 08:53:29;;;;;;;5.10;2.20;;;-8.00;99.90;;;;;;4949059;29;20398;-86
2022/03/10 08:55:57;;;;;;;5.55;2.35;;;-8.00;99.90;;;;;;4949213;29;20434;-86
2022/03/10 08:58:25;;;;;;;5.95;2.10;;;-7.80;99.90;;;;;;4933403;29;20847;-85
2022/03/10 09:00:54;;;;;;;4.27;1.70;;;-7.80;99.90;;;;;;4933285;29;20417;-86
2022/03/10 09:03:42;;;;;;;4.68;2.10;;;-7.80;99.90;;;;;;4936078;29;20496;-85
2022/03/10 09:06:12;;;;;;;4.53;2.10;;;-7.60;99.90;;;;;;4935830;29;20397;-86
2022/03/10 09:08:39;;;;;;;5.78;1.98;;;-7.60;99.90;;;;;;4953077;29;20442;-87
2022/03/10 09:11:07;;;;;;;5.53;2.07;;;-7.60;99.90;;;;;;4952737;29;20513;-86
2022/03/10 09:13:35;;;;;;;4.18;1.80;;;-7.50;99.90;;;;;;4936835;29;20409;-85
2022/03/10 09:16:02;;;;;;;5.78;2.13;;;-7.40;99.90;;;;;;4937166;29;20492;-86
2022/03/10 09:18:30;;;;;;;5.68;1.92;;;-7.40;99.90;;;;;;4938093;29;20412;-87
2022/03/10 09:20:57;;;;;;;4.78;2.05;;;-7.30;99.90;;;;;;4936933;29;20446;-86
2022/03/10 09:23:25;;;;;;;4.30;1.95;;;-7.30;99.90;;;;;;4936697;29;20437;-86
2022/03/10 09:25:53;;;;;;;5.10;1.75;;;-7.20;99.90;;;;;;4952753;29;20397;-87
2022/03/10 09:28:20;;;;;;;4.65;1.83;;;-7.10;99.90;;;;;;4936689;29;20398;-86
2022/03/10 09:30:48;;;;;;;5.07;2.03;;;-7.10;99.90;;;;;;4936488;29;20995;-86
2022/03/10 09:33:15;;;;;;;6.25;1.80;;;-7.10;99.90;;;;;;4952588;29;20449;-87
2022/03/10 09:35:42;;;;;;;5.25;1.90;;;-6.90;99.90;;;;;;4952717;29;20417;-87
2022/03/10 09:38:10;;;;;;;6.83;1.97;;;-6.80;99.90;;;;;;4952558;29;20413;-87
2022/03/10 09:40:38;;;;;;;3.80;1.70;;;-6.80;99.90;;;;;;4952552;29;20773;-87
2022/03/10 09:43:05;;;;;;;4.63;1.90;;;-6.50;99.90;;;;;;4952299;29;20820;-86
2022/03/10 09:45:37;;;;;;;4.53;1.80;;;-6.50;99.90;;;;;;4951997;29;20760;-85
2022/03/10 09:48:04;;;;;;;5.28;1.80;;;-6.30;99.90;;;;;;4936359;29;20556;-86
2022/03/10 09:50:32;;;;;;;4.80;1.80;;;-6.30;99.90;;;;;;4952274;29;20449;-86
2022/03/10 09:53:00;;;;;;;6.40;2.03;;;-6.20;99.90;;;;;;4952204;29;20421;-87
2022/03/10 09:55:27;;;;;;;5.82;1.77;;;-6.20;99.90;;;;;;4936051;29;20884;-87
2022/03/10 09:57:56;;;;;;;4.45;1.90;;;-6.20;99.90;;;;;;4936281;29;20422;-86
2022/03/10 10:00:23;;;;;;;4.70;1.80;;;-6.10;99.90;;;;;;4937197;29;20422;-87
2022/03/10 10:02:51;;;;;;;5.33;1.80;;;-6.10;99.90;;;;;;4936068;29;20402;-87
2022/03/10 10:05:39;;;;;;;7.72;2.00;;;-5.90;99.90;;;;;;4935846;29;20497;-86
2022/03/10 10:08:17;;;;;;;6.75;1.90;;;-5.90;99.90;;;;;;4936194;29;20410;-86
2022/03/10 10:10:50;;;;;;;5.47;1.90;;;-5.60;99.90;;;;;;4952159;29;20561;-87
2022/03/10 10:13:25;;;;;;;4.18;1.60;;;-5.50;99.90;;;;;;4935837;29;20421;-86
2022/03/10 10:16:01;;;;;;;5.35;1.70;;;-5.40;99.90;;;;;;4936999;29;20398;-87
2022/03/10 10:18:30;;;;;;;5.63;1.67;;;-5.30;99.90;;;;;;4935254;29;20398;-87
2022/03/10 10:21:20;;;;;;;5.60;1.50;;;-5.30;99.90;;;;;;4951716;29;20402;-87
2022/03/10 10:23:49;;;;;;;5.72;1.77;;;-5.20;99.90;;;;;;4935820;29;20485;-87
2022/03/10 10:26:19;;;;;;;5.03;1.55;;;-5.20;99.90;;;;;;4935635;29;20417;-87
2022/03/10 10:28:50;;;;;;;4.90;2.30;;;-5.00;99.90;;;;;;4935580;29;20429;-87
2022/03/10 10:31:24;;;;;;;4.77;1.50;;;-4.90;99.90;;;;;;4951697;29;20394;-87
2022/03/10 10:34:01;;;;;;;6.70;2.05;;;-4.70;99.90;;;;;;4935616;29;21003;-86
2022/03/10 10:36:31;;;;;;;7.22;1.52;;;-4.70;99.90;;;;;;4935612;29;20470;-87
2022/03/10 10:39:10;;;;;;;5.32;1.50;;;-4.60;99.90;;;;;;4935547;29;20418;-87
2022/03/10 10:41:42;;;;;;;4.70;1.70;;;-4.50;99.90;;;;;;4935402;29;20784;-87
2022/03/10 10:44:16;;;;;;;5.97;1.60;;;-4.40;99.90;;;;;;4951376;29;20405;-87
2022/03/10 10:46:45;;;;;;;3.72;1.52;;;-4.30;99.90;;;;;;4935949;29;20868;-87
2022/03/10 10:49:16;;;;;;;4.28;1.63;;;-4.20;99.90;;;;;;4951501;29;20864;-87
2022/03/10 10:51:45;;;;;;;5.53;1.73;;;-4.20;99.90;;;;;;4951063;29;20410;-87
2022/03/10 10:54:21;;;;;;;5.85;1.75;;;-4.30;99.90;;;;;;4936473;29;20911;-86
2022/03/10 10:57:03;;;;;;;5.47;1.70;;;-4.20;99.90;;;;;;4935159;29;20414;-87
2022/03/10 10:59:43;;;;;;;5.35;1.67;;;-4.10;99.90;;;;;;4935173;29;20437;-87
2022/03/10 11:02:19;;;;;;;4.18;1.50;;;-3.90;99.90;;;;;;4935142;29;20416;-88
2022/03/10 11:04:49;;;;;;;5.03;1.50;;;-4.00;99.90;;;;;;4950971;29;20398;-87
2022/03/10 11:07:19;;;;;;;3.05;1.35;;;-3.90;99.90;;;;;;4951079;29;20409;-87
2022/03/10 11:09:49;;;;;;;3.00;1.50;;;-3.70;99.90;;;;;;4950839;29;20448;-87
2022/03/10 11:12:18;;;;;;;3.78;1.55;;;-3.60;99.90;;;;;;4951200;29;20421;-88
2022/03/10 11:14:46;;;;;;;3.58;1.40;;;-3.60;99.90;;;;;;4935291;29;20401;-88
2022/03/10 11:17:16;;;;;;;6.32;1.50;;;-3.40;99.90;;;;;;4934973;29;20406;-88
2022/03/10 11:19:46;;;;;;;5.88;1.60;;;-3.30;99.90;;;;;;4934829;29;20398;-87
2022/03/10 11:22:35;;;;;;;5.03;1.60;;;-3.20;98.20;;;;;;4934790;29;20406;-87
2022/03/10 11:25:40;;;;;;;6.45;1.77;;;-3.00;96.10;;;;;;4934633;29;20398;-87
2022/03/10 11:28:20;;;;;;;5.25;1.75;;;-3.00;98.30;;;;;;4934852;29;20452;-87
2022/03/10 11:30:55;;;;;;;3.25;1.77;;;-2.90;99.10;;;;;;4950548;29;20398;-87
2022/03/10 11:33:29;;;;;;;5.28;1.65;;;-2.80;98.90;;;;;;4950403;29;20720;-87
2022/03/10 11:35:59;;;;;;;5.40;1.50;;;-2.70;96.60;;;;;;4949988;29;20413;-88
2022/03/10 11:38:51;;;;;;;4.70;1.40;;;-2.60;98.20;;;;;;4935739;29;20498;-88
2022/03/10 11:41:19;;;;;;;4.95;1.58;;;-2.50;99.90;;;;;;4950128;29;20820;-86
2022/03/10 11:44:01;;;;;;;3.85;1.58;;;-2.30;99.70;;;;;;4950557;29;20427;-87
2022/03/10 11:46:30;;;;;;;3.30;1.30;;;-2.30;97.90;;;;;;4950222;29;20398;-88
2022/03/10 11:49:03;;;;;;;2.77;1.40;;;-2.40;99.20;;;;;;4934350;29;20402;-88
2022/03/10 11:51:52;;;;;;;3.55;1.65;;;-2.30;98.20;;;;;;4934250;29;20509;-87
2022/03/10 11:54:26;;;;;;;4.43;1.40;;;-2.40;99.90;;;;;;4934190;29;20881;-86
2022/03/10 11:56:58;;;;;;;4.78;1.70;;;-2.10;99.60;;;;;;4950103;29;20410;-87
2022/03/10 11:59:43;;;;;;;3.42;1.38;;;-2.00;99.20;;;;;;4933904;29;20505;-87
2022/03/10 12:02:38;;;;;;;2.90;1.60;;;-1.90;99.90;;;;;;4949474;29;20402;-88
2022/03/10 12:05:07;;;;;;;3.50;1.40;;;-1.90;99.90;;;;;;4934276;29;20429;-87
2022/03/10 12:07:35;;;;;;;3.40;1.30;;;-1.70;99.60;;;;;;4934099;29;20406;-87
2022/03/10 12:10:08;;;;;;;3.65;1.58;;;-1.70;99.60;;;;;;4934481;29;20410;-87
2022/03/10 12:12:38;;;;;;;4.43;1.50;;;-1.80;99.20;;;;;;4933964;29;20509;-86
2022/03/10 12:15:26;;;;;;;3.15;1.42;;;-1.60;96.30;;;;;;4950135;29;20880;-86
2022/03/10 12:17:55;;;;;;;3.50;1.38;;;-1.80;99.70;;;;;;4934041;29;20409;-86
2022/03/10 12:20:38;;;;;;;4.07;1.63;;;-1.70;96.70;;;;;;4933950;29;20398;-86
2022/03/10 12:23:06;;;;;;;4.03;1.50;;;-1.50;95.00;;;;;;4933800;29;20448;-86
2022/03/10 12:25:44;;;;;;;3.97;1.37;;;-1.40;95.90;;;;;;4934105;29;20496;-85
2022/03/10 12:28:33;;;;;;;4.50;1.60;;;-1.40;97.90;;;;;;4933850;29;20469;-86
2022/03/10 12:31:14;;;;;;;2.53;1.20;;;-1.20;97.30;;;;;;4933841;29;20416;-87
2022/03/10 12:33:50;;;;;;;3.17;1.43;;;-1.10;97.70;;;;;;4933747;29;20908;-88
2022/03/10 12:36:31;;;;;;;3.72;1.50;;;-1.30;99.70;;;;;;4933782;29;20414;-88
2022/03/10 12:39:01;;;;;;;3.78;1.40;;;-1.40;98.30;;;;;;4933769;29;20810;-88
2022/03/10 12:41:40;;;;;;;3.13;1.23;;;-1.40;98.90;;;;;;4952906;28;20437;-87
2022/03/10 12:44:10;;;;;;;4.03;1.30;;;-1.40;98.90;;;;;;4934498;29;20406;-86
2022/03/10 12:46:41;;;;;;;4.20;1.45;;;-1.20;98.30;;;;;;4934435;29;20419;-86
2022/03/10 12:49:32;;;;;;;4.25;1.60;;;-1.00;97.20;;;;;;4934692;29;20411;-86
2022/03/10 12:52:08;;;;;;;5.03;1.50;;;-0.90;95.80;;;;;;4918382;29;20410;-85
2022/03/10 12:54:40;;;;;;;4.53;1.50;;;-0.60;94.10;;;;;;4934110;29;20470;-86
2022/03/10 12:57:09;;;;;;;3.33;1.52;;;-0.70;92.10;;;;;;4937434;29;20409;-87
2022/03/10 12:59:40;;;;;;;4.50;1.67;;;-0.80;96.60;;;;;;4921385;29;20402;-85
2022/03/10 13:02:26;;;;;;;7.47;1.60;;;-0.90;97.20;;;;;;4936492;29;20813;-86